Time,TemperatureF,DewpointF,PressureIn,WindDirection,WindDirectionDegrees,WindSpeedMPH,WindSpeedGustMPH,Humidity,HourlyPrecipIn,Conditions,Clouds,dailyrainin,SoftwareType,DateUTC
2013-05-26 00:04:00,49.1,47.7,30.22,NE,56,1.0,2.0,95,0.00,,---,0.00,VWS V14.00,2013-05-26 05:04:00,
2013-05-26 00:10:00,49.1,47.7,30.22,NE,56,0.0,0.0,95,0.00,,---,0.00,VWS V14.00,2013-05-26 05:10:00,
2013-05-26 00:15:00,49.2,47.8,30.22,NE,56,0.0,1.0,95,0.00,,---,0.00,VWS V14.00,2013-05-26 05:15:00,
2013-05-26 00:20:00,49.2,48.1,30.22,NE,56,0.0,3.0,96,0.00,,---,0.00,VWS V14.00,2013-05-26 05:20:00,
2013-05-26 00:25:00,49.2,48.1,30.22,NE,56,6.0,6.0,96,0.00,,---,0.00,VWS V14.00,2013-05-26 05:25:00,
2013-05-26 00:30:00,49.4,48.3,30.22,ENE,64,0.0,0.0,96,0.00,,---,0.00,VWS V14.00,2013-05-26 05:30:00,
2013-05-26 00:35:00,49.4,48.3,30.21,ENE,64,0.0,1.0,96,0.00,,---,0.00,VWS V14.00,2013-05-26 05:35:00,
2013-05-26 00:40:00,49.4,48.3,30.21,ENE,66,0.0,3.0,96,0.00,,---,0.00,VWS V14.00,2013-05-26 05:40:00,
2013-05-26 00:45:00,49.5,48.4,30.21,ENE,67,0.0,2.0,96,0.00,,---,0.00,VWS V14.00,2013-05-26 05:45:00,
2013-05-26 00:50:00,49.6,48.5,30.21,ENE,67,0.0,0.0,96,0.00,,---,0.00,VWS V14.00,2013-05-26 05:50:00,
2013-05-26 00:55:00,49.6,48.5,30.21,ENE,67,0.0,1.0,96,0.00,,---,0.00,VWS V14.00,2013-05-26 05:55:00,
2013-05-26 01:00:00,49.6,48.5,30.20,ENE,67,2.0,3.0,96,0.00,,---,0.00,VWS V14.00,2013-05-26 06:00:00,
2013-05-26 01:05:00,49.8,48.7,30.20,ENE,67,0.0,1.0,96,0.00,,---,0.00,VWS V14.00,2013-05-26 06:05:00,
2013-05-26 01:11:00,49.8,48.7,30.20,ENE,67,0.0,3.0,96,0.00,,---,0.00,VWS V14.00,2013-05-26 06:11:00,
2013-05-26 01:16:00,49.8,48.7,30.20,ENE,67,0.0,0.0,96,0.00,,---,0.00,VWS V14.00,2013-05-26 06:16:00,
2013-05-26 01:21:00,49.8,48.7,30.20,ENE,67,0.0,1.0,96,0.00,,---,0.00,VWS V14.00,2013-05-26 06:21:00,
2013-05-26 01:26:00,49.8,48.7,30.20,ENE,67,0.0,1.0,96,0.00,,---,0.00,VWS V14.00,2013-05-26 06:26:00,
2013-05-26 01:31:00,49.8,48.7,30.20,ENE,67,1.0,1.0,96,0.00,,---,0.00,VWS V14.00,2013-05-26 06:31:00,
2013-05-26 01:36:00,49.8,48.7,30.20,ENE,67,0.0,0.0,96,0.00,,---,0.00,VWS V14.00,2013-05-26 06:36:00,
2013-05-26 01:41:00,49.8,48.7,30.20,ENE,67,0.0,0.0,96,0.00,,---,0.00,VWS V14.00,2013-05-26 06:41:00,
2013-05-26 01:46:00,49.9,48.8,30.20,ENE,67,0.0,0.0,96,0.00,,---,0.00,VWS V14.00,2013-05-26 06:46:00,
2013-05-26 01:51:00,49.9,48.8,30.20,ENE,67,0.0,1.0,96,0.00,,---,0.00,VWS V14.00,2013-05-26 06:51:00,
2013-05-26 01:56:00,49.9,48.8,30.20,ENE,67,0.0,0.0,96,0.00,,---,0.00,VWS V14.00,2013-05-26 06:56:00,
2013-05-26 02:01:00,49.9,48.8,30.19,ENE,67,6.0,6.0,96,0.00,,---,0.00,VWS V14.00,2013-05-26 07:01:00,
2013-05-26 02:06:00,49.9,48.8,30.19,ENE,67,0.0,6.0,96,0.00,,---,0.00,VWS V14.00,2013-05-26 07:06:00,
2013-05-26 02:11:00,49.9,48.8,30.19,ENE,67,0.0,1.0,96,0.00,,---,0.00,VWS V14.00,2013-05-26 07:11:00,
2013-05-26 02:16:00,50.1,49.0,30.18,ENE,67,2.0,3.0,96,0.00,,---,0.00,VWS V14.00,2013-05-26 07:16:00,
2013-05-26 02:22:00,50.1,49.0,30.18,ENE,67,0.0,0.0,96,0.00,,---,0.00,VWS V14.00,2013-05-26 07:22:00,
2013-05-26 02:27:00,50.1,49.0,30.18,ENE,67,0.0,3.0,96,0.00,,---,0.00,VWS V14.00,2013-05-26 07:27:00,
2013-05-26 02:32:00,50.1,49.0,30.18,ENE,67,0.0,6.0,96,0.00,,---,0.00,VWS V14.00,2013-05-26 07:32:00,
2013-05-26 02:37:00,50.1,49.0,30.18,ENE,67,0.0,0.0,96,0.00,,---,0.00,VWS V14.00,2013-05-26 07:37:00,
2013-05-26 02:42:00,49.9,48.8,30.18,ENE,67,0.0,4.0,96,0.00,,---,0.00,VWS V14.00,2013-05-26 07:42:00,
2013-05-26 02:47:00,49.9,48.8,30.18,ENE,67,0.0,2.0,96,0.00,,---,0.00,VWS V14.00,2013-05-26 07:47:00,
2013-05-26 02:52:00,49.9,48.8,30.18,ENE,67,0.0,1.0,96,0.00,,---,0.00,VWS V14.00,2013-05-26 07:52:00,
2013-05-26 02:57:00,49.9,48.8,30.18,ENE,67,2.0,2.0,96,0.00,,---,0.00,VWS V14.00,2013-05-26 07:57:00,
2013-05-26 03:02:00,49.9,48.8,30.18,ENE,67,1.0,1.0,96,0.00,,---,0.00,VWS V14.00,2013-05-26 08:02:00,
2013-05-26 03:07:00,49.8,48.7,30.18,ENE,67,0.0,0.0,96,0.00,,---,0.00,VWS V14.00,2013-05-26 08:07:00,
2013-05-26 03:13:00,49.8,48.7,30.18,ENE,67,0.0,0.0,96,0.00,,---,0.00,VWS V14.00,2013-05-26 08:13:00,
2013-05-26 03:18:00,49.8,48.7,30.18,ENE,67,0.0,0.0,96,0.00,,---,0.00,VWS V14.00,2013-05-26 08:18:00,
2013-05-26 03:23:00,49.9,48.8,30.18,ENE,67,0.0,0.0,96,0.00,,---,0.00,VWS V14.00,2013-05-26 08:23:00,
2013-05-26 03:28:00,49.9,48.8,30.18,ENE,67,0.0,0.0,96,0.00,,---,0.00,VWS V14.00,2013-05-26 08:28:00,
2013-05-26 03:33:00,49.9,48.8,30.18,ENE,67,0.0,0.0,96,0.00,,---,0.00,VWS V14.00,2013-05-26 08:33:00,
2013-05-26 03:38:00,49.9,48.5,30.18,ENE,67,0.0,0.0,95,0.00,,---,0.00,VWS V14.00,2013-05-26 08:38:00,
2013-05-26 03:43:00,49.9,48.5,30.18,ENE,67,0.0,0.0,95,0.00,,---,0.00,VWS V14.00,2013-05-26 08:43:00,
2013-05-26 03:48:00,49.9,48.5,30.18,ENE,67,0.0,0.0,95,0.00,,---,0.00,VWS V14.00,2013-05-26 08:48:00,
2013-05-26 03:53:00,49.9,48.5,30.18,ENE,67,0.0,0.0,95,0.00,,---,0.00,VWS V14.00,2013-05-26 08:53:00,
2013-05-26 03:59:00,49.9,48.5,30.18,ENE,67,0.0,0.0,95,0.00,,---,0.00,VWS V14.00,2013-05-26 08:59:00,
2013-05-26 04:04:00,49.9,48.5,30.18,ENE,67,0.0,0.0,95,0.00,,---,0.00,VWS V14.00,2013-05-26 09:04:00,
2013-05-26 04:09:00,49.9,48.5,30.18,ENE,67,0.0,0.0,95,0.00,,---,0.00,VWS V14.00,2013-05-26 09:09:00,
2013-05-26 04:14:00,49.9,48.5,30.18,ENE,67,0.0,0.0,95,0.00,,---,0.00,VWS V14.00,2013-05-26 09:14:00,
2013-05-26 04:19:00,49.9,48.5,30.18,ENE,67,0.0,0.0,95,0.00,,---,0.00,VWS V14.00,2013-05-26 09:19:00,
2013-05-26 04:24:00,49.9,48.5,30.18,ENE,67,0.0,0.0,95,0.00,,---,0.00,VWS V14.00,2013-05-26 09:24:00,
2013-05-26 04:29:00,49.9,48.5,30.18,ENE,67,0.0,0.0,95,0.00,,---,0.00,VWS V14.00,2013-05-26 09:29:00,
2013-05-26 04:34:00,49.9,48.5,30.18,ENE,67,0.0,0.0,95,0.00,,---,0.00,VWS V14.00,2013-05-26 09:34:00,
2013-05-26 04:39:00,50.1,48.7,30.18,ENE,67,1.0,5.0,95,0.00,,---,0.00,VWS V14.00,2013-05-26 09:39:00,
2013-05-26 04:45:00,50.2,48.8,30.18,ENE,67,0.0,0.0,95,0.00,,---,0.00,VWS V14.00,2013-05-26 09:45:00,
2013-05-26 04:50:00,50.2,48.8,30.18,ENE,67,0.0,0.0,95,0.00,,---,0.00,VWS V14.00,2013-05-26 09:50:00,
2013-05-26 04:55:00,50.2,48.8,30.18,ENE,67,1.0,1.0,95,0.00,,---,0.00,VWS V14.00,2013-05-26 09:55:00,
2013-05-26 05:00:00,50.2,48.8,30.18,ENE,67,0.0,0.0,95,0.00,,---,0.00,VWS V14.00,2013-05-26 10:00:00,
2013-05-26 05:05:00,50.2,48.8,30.18,ENE,67,0.0,1.0,95,0.00,,---,0.00,VWS V14.00,2013-05-26 10:05:00,
2013-05-26 05:10:00,50.2,48.8,30.18,ENE,67,0.0,0.0,95,0.00,,---,0.00,VWS V14.00,2013-05-26 10:10:00,
2013-05-26 05:15:00,50.2,48.8,30.19,ENE,67,0.0,1.0,95,0.00,,---,0.00,VWS V14.00,2013-05-26 10:15:00,
2013-05-26 05:20:00,50.2,48.8,30.19,ENE,67,0.0,0.0,95,0.00,,---,0.00,VWS V14.00,2013-05-26 10:20:00,
2013-05-26 05:26:00,50.2,48.8,30.19,ENE,67,0.0,0.0,95,0.00,,---,0.00,VWS V14.00,2013-05-26 10:26:00,
2013-05-26 05:31:00,50.2,48.8,30.19,ENE,67,0.0,0.0,95,0.00,,---,0.00,VWS V14.00,2013-05-26 10:31:00,
2013-05-26 05:36:00,50.2,48.8,30.19,ENE,67,0.0,0.0,95,0.00,,---,0.00,VWS V14.00,2013-05-26 10:36:00,
2013-05-26 05:41:00,50.2,48.8,30.19,ENE,67,0.0,0.0,95,0.00,,---,0.00,VWS V14.00,2013-05-26 10:41:00,
2013-05-26 05:46:00,50.2,48.8,30.20,ENE,67,0.0,0.0,95,0.00,,---,0.00,VWS V14.00,2013-05-26 10:46:00,
2013-05-26 05:51:00,50.2,48.8,30.20,ENE,67,0.0,0.0,95,0.00,,---,0.00,VWS V14.00,2013-05-26 10:51:00,
2013-05-26 05:56:00,50.2,48.8,30.20,ENE,67,0.0,0.0,95,0.00,,---,0.00,VWS V14.00,2013-05-26 10:56:00,
2013-05-26 06:01:00,50.2,48.8,30.19,ENE,67,0.0,1.0,95,0.00,,---,0.00,VWS V14.00,2013-05-26 11:01:00,
2013-05-26 06:06:00,50.2,48.8,30.19,ENE,67,0.0,1.0,95,0.00,,---,0.00,VWS V14.00,2013-05-26 11:06:00,
2013-05-26 06:11:00,50.4,49.0,30.19,ENE,67,3.0,3.0,95,0.00,,---,0.00,VWS V14.00,2013-05-26 11:11:00,
2013-05-26 06:16:00,50.4,49.0,30.19,ENE,67,4.0,9.0,95,0.00,,---,0.00,VWS V14.00,2013-05-26 11:16:00,
2013-05-26 06:21:00,50.4,48.7,30.19,ENE,69,0.0,7.0,94,0.00,,---,0.00,VWS V14.00,2013-05-26 11:21:00,
2013-05-26 06:26:00,50.4,48.7,30.19,ENE,72,7.0,11.0,94,0.00,,---,0.00,VWS V14.00,2013-05-26 11:26:00,
2013-05-26 06:32:00,50.5,48.8,30.20,ENE,74,6.0,6.0,94,0.00,,---,0.00,VWS V14.00,2013-05-26 11:32:00,
2013-05-26 06:37:00,50.7,48.8,30.20,ENE,78,7.0,9.0,93,0.00,,---,0.00,VWS V14.00,2013-05-26 11:37:00,
2013-05-26 06:42:00,50.7,48.5,30.20,ENE,78,5.0,7.0,92,0.00,,---,0.00,VWS V14.00,2013-05-26 11:42:00,
2013-05-26 06:47:00,50.8,48.6,30.20,East,79,6.0,7.0,92,0.00,,---,0.00,VWS V14.00,2013-05-26 11:47:00,
2013-05-26 06:52:00,50.8,48.3,30.20,East,80,7.0,7.0,91,0.00,,---,0.00,VWS V14.00,2013-05-26 11:52:00,
2013-05-26 06:57:00,50.8,48.3,30.20,East,82,5.0,11.0,91,0.00,,---,0.00,VWS V14.00,2013-05-26 11:57:00,
2013-05-26 07:02:00,51.0,48.2,30.20,East,83,8.0,9.0,90,0.00,,---,0.00,VWS V14.00,2013-05-26 12:02:00,
2013-05-26 07:07:00,51.0,48.2,30.20,East,83,7.0,10.0,90,0.00,,---,0.00,VWS V14.00,2013-05-26 12:07:00,
2013-05-26 07:12:00,51.1,48.0,30.20,East,87,9.0,12.0,89,0.00,,---,0.00,VWS V14.00,2013-05-26 12:12:00,
2013-05-26 07:18:00,51.0,47.9,30.20,East,88,7.0,7.0,89,0.00,,---,0.00,VWS V14.00,2013-05-26 12:18:00,
2013-05-26 07:23:00,51.1,48.0,30.20,East,96,7.0,10.0,89,0.00,,---,0.00,VWS V14.00,2013-05-26 12:23:00,
2013-05-26 07:28:00,51.1,48.0,30.20,East,97,6.0,9.0,89,0.00,,---,0.00,VWS V14.00,2013-05-26 12:28:00,
2013-05-26 07:33:00,51.1,48.0,30.22,East,97,9.0,10.0,89,0.00,,---,0.00,VWS V14.00,2013-05-26 12:33:00,
2013-05-26 07:38:00,51.1,48.0,30.22,East,99,9.0,13.0,89,0.00,,---,0.00,VWS V14.00,2013-05-26 12:38:00,
2013-05-26 07:43:00,51.3,48.2,30.22,East,101,12.0,13.0,89,0.00,,---,0.00,VWS V14.00,2013-05-26 12:43:00,
2013-05-26 07:48:00,51.1,48.0,30.22,ESE,102,6.0,11.0,89,0.00,,---,0.00,VWS V14.00,2013-05-26 12:48:00,
2013-05-26 07:53:00,51.3,48.2,30.22,ESE,103,12.0,12.0,89,0.00,,---,0.00,VWS V14.00,2013-05-26 12:53:00,
2013-05-26 07:58:00,51.4,48.3,30.22,ESE,103,9.0,12.0,89,0.00,,---,0.00,VWS V14.00,2013-05-26 12:58:00,
2013-05-26 08:04:00,51.6,48.2,30.20,ESE,104,5.0,14.0,88,0.00,,---,0.00,VWS V14.00,2013-05-26 13:04:00,
2013-05-26 08:09:00,51.6,48.2,30.20,ESE,104,9.0,9.0,88,0.00,,---,0.00,VWS V14.00,2013-05-26 13:09:00,
2013-05-26 08:14:00,51.9,48.5,30.20,ESE,105,0.0,13.0,88,0.00,,---,0.00,VWS V14.00,2013-05-26 13:14:00,
2013-05-26 08:19:00,52.2,49.1,30.19,ESE,105,3.0,13.0,89,0.00,,---,0.00,VWS V14.00,2013-05-26 13:19:00,
2013-05-26 08:24:00,52.2,47.8,30.19,ESE,105,12.0,14.0,85,0.00,,---,0.00,VWS V14.00,2013-05-26 13:24:00,
2013-05-26 08:29:00,52.3,48.9,30.19,ESE,104,5.0,12.0,88,0.00,,---,0.00,VWS V14.00,2013-05-26 13:29:00,
2013-05-26 08:34:00,52.5,49.0,30.20,ESE,105,11.0,16.0,88,0.00,,---,0.00,VWS V14.00,2013-05-26 13:34:00,
2013-05-26 08:39:00,52.9,49.8,30.20,ESE,105,9.0,10.0,89,0.00,,---,0.00,VWS V14.00,2013-05-26 13:39:00,
2013-05-26 08:44:00,52.9,49.5,30.20,ESE,106,11.0,15.0,88,0.00,,---,0.00,VWS V14.00,2013-05-26 13:44:00,
2013-05-26 08:50:00,53.1,50.0,30.22,ESE,109,13.0,13.0,89,0.00,,---,0.00,VWS V14.00,2013-05-26 13:50:00,
2013-05-26 08:55:00,53.2,49.7,30.22,ESE,107,3.0,11.0,88,0.00,,---,0.00,VWS V14.00,2013-05-26 13:55:00,
2013-05-26 09:00:00,53.2,49.7,30.22,ESE,107,11.0,11.0,88,0.00,,---,0.00,VWS V14.00,2013-05-26 14:00:00,
2013-05-26 09:05:00,53.2,49.7,30.21,ESE,105,10.0,12.0,88,0.00,,---,0.00,VWS V14.00,2013-05-26 14:05:00,
2013-05-26 09:10:00,53.2,49.7,30.21,ESE,111,12.0,14.0,88,0.00,,---,0.00,VWS V14.00,2013-05-26 14:10:00,
2013-05-26 09:15:00,53.1,50.0,30.21,ESE,111,12.0,14.0,89,0.00,,---,0.00,VWS V14.00,2013-05-26 14:15:00,
2013-05-26 09:20:00,53.1,50.0,30.21,ESE,107,11.0,14.0,89,0.00,,---,0.00,VWS V14.00,2013-05-26 14:20:00,
2013-05-26 09:25:00,53.1,50.0,30.21,ESE,108,10.0,14.0,89,0.00,,---,0.00,VWS V14.00,2013-05-26 14:25:00,
2013-05-26 09:30:00,53.1,50.0,30.20,ESE,105,10.0,13.0,89,0.00,,---,0.00,VWS V14.00,2013-05-26 14:30:00,
2013-05-26 09:35:00,53.1,50.0,30.20,ESE,105,5.0,13.0,89,0.00,,---,0.00,VWS V14.00,2013-05-26 14:35:00,
2013-05-26 09:41:00,53.1,50.0,30.20,ESE,105,4.0,10.0,89,0.00,,---,0.00,VWS V14.00,2013-05-26 14:41:00,
2013-05-26 09:46:00,53.1,50.0,30.22,ESE,105,6.0,11.0,89,0.00,,---,0.00,VWS V14.00,2013-05-26 14:46:00,
2013-05-26 09:51:00,53.1,50.2,30.22,ESE,105,10.0,10.0,90,0.00,,---,0.00,VWS V14.00,2013-05-26 14:51:00,
2013-05-26 09:56:00,53.1,50.2,30.22,ESE,105,7.0,10.0,90,0.00,,---,0.00,VWS V14.00,2013-05-26 14:56:00,
2013-05-26 10:01:00,53.2,50.7,30.23,ESE,105,5.0,7.0,91,0.00,,---,0.00,VWS V14.00,2013-05-26 15:01:00,
2013-05-26 10:06:00,53.2,50.7,30.23,ESE,105,6.0,9.0,91,0.00,,---,0.00,VWS V14.00,2013-05-26 15:06:00,
2013-05-26 10:11:00,53.2,50.7,30.23,ESE,105,5.0,9.0,91,0.00,,---,0.00,VWS V14.00,2013-05-26 15:11:00,
2013-05-26 10:16:00,53.2,50.7,30.24,ESE,105,5.0,6.0,91,0.00,,---,0.00,VWS V14.00,2013-05-26 15:16:00,
2013-05-26 10:21:00,53.1,50.8,30.24,ESE,105,1.0,6.0,92,0.00,,---,0.00,VWS V14.00,2013-05-26 15:21:00,
2013-05-26 10:26:00,53.1,50.8,30.24,ESE,105,0.0,1.0,92,0.00,,---,0.00,VWS V14.00,2013-05-26 15:26:00,
2013-05-26 10:31:00,53.1,50.8,30.18,ESE,105,5.0,10.0,92,0.00,,---,0.00,VWS V14.00,2013-05-26 15:31:00,
2013-05-26 10:36:00,52.8,50.8,30.18,ESE,107,5.0,6.0,93,0.00,,---,0.00,VWS V14.00,2013-05-26 15:36:00,
2013-05-26 10:41:00,52.8,51.1,30.18,ESE,105,11.0,11.0,94,0.00,,---,0.00,VWS V14.00,2013-05-26 15:41:00,
2013-05-26 10:46:00,52.9,51.2,30.21,ESE,108,9.0,10.0,94,0.00,,---,0.00,VWS V14.00,2013-05-26 15:46:00,
2013-05-26 10:51:00,53.1,51.7,30.21,ESE,110,10.0,11.0,95,0.00,,---,0.00,VWS V14.00,2013-05-26 15:51:00,
2013-05-26 10:56:00,53.2,51.8,30.21,ESE,116,9.0,11.0,95,0.00,,---,0.00,VWS V14.00,2013-05-26 15:56:00,
2013-05-26 11:02:00,53.3,51.9,30.20,ESE,113,9.0,14.0,95,0.00,,---,0.00,VWS V14.00,2013-05-26 16:02:00,
2013-05-26 11:07:00,53.3,51.9,30.20,ESE,111,6.0,12.0,95,0.00,,---,0.00,VWS V14.00,2013-05-26 16:07:00,
2013-05-26 11:12:00,53.5,52.1,30.20,ESE,111,10.0,11.0,95,0.00,,---,0.00,VWS V14.00,2013-05-26 16:12:00,
2013-05-26 11:17:00,53.6,52.2,30.20,ESE,110,6.0,10.0,95,0.00,,---,0.00,VWS V14.00,2013-05-26 16:17:00,
2013-05-26 11:22:00,53.6,52.2,30.20,ESE,109,4.0,9.0,95,0.00,,---,0.00,VWS V14.00,2013-05-26 16:22:00,
2013-05-26 11:27:00,53.8,52.4,30.20,ESE,108,9.0,11.0,95,0.00,,---,0.00,VWS V14.00,2013-05-26 16:27:00,
2013-05-26 11:32:00,53.9,52.5,30.21,ESE,108,11.0,12.0,95,0.00,,---,0.00,VWS V14.00,2013-05-26 16:32:00,
2013-05-26 11:37:00,54.1,52.7,30.21,ESE,108,8.0,10.0,95,0.00,,---,0.00,VWS V14.00,2013-05-26 16:37:00,
2013-05-26 11:42:00,54.1,52.7,30.21,ESE,110,6.0,11.0,95,0.00,,---,0.00,VWS V14.00,2013-05-26 16:42:00,
2013-05-26 11:48:00,54.2,52.8,30.23,SE,134,12.0,12.0,95,0.00,,---,0.00,VWS V14.00,2013-05-26 16:48:00,
2013-05-26 11:53:00,54.4,53.3,30.23,SE,144,11.0,15.0,96,0.00,,---,0.00,VWS V14.00,2013-05-26 16:53:00,
2013-05-26 11:58:00,54.5,53.4,30.23,SE,137,11.0,11.0,96,0.00,,---,0.00,VWS V14.00,2013-05-26 16:58:00,
2013-05-26 12:03:00,54.5,53.4,30.21,SE,132,9.0,10.0,96,0.00,,---,0.00,VWS V14.00,2013-05-26 17:03:00,
2013-05-26 12:08:00,54.7,53.6,30.21,ESE,116,13.0,13.0,96,0.00,,---,0.00,VWS V14.00,2013-05-26 17:08:00,
2013-05-26 12:13:00,55.0,53.9,30.21,ESE,118,13.0,16.0,96,0.00,,---,0.00,VWS V14.00,2013-05-26 17:13:00,
2013-05-26 12:18:00,55.1,54.0,30.18,ESE,107,12.0,13.0,96,0.00,,---,0.00,VWS V14.00,2013-05-26 17:18:00,
2013-05-26 12:23:00,55.3,54.2,30.18,ESE,109,11.0,15.0,96,0.00,,---,0.00,VWS V14.00,2013-05-26 17:23:00,
2013-05-26 12:28:00,55.3,54.2,30.18,ESE,108,14.0,15.0,96,0.00,,---,0.00,VWS V14.00,2013-05-26 17:28:00,
2013-05-26 12:33:00,55.4,54.3,30.18,ESE,111,12.0,15.0,96,0.00,,---,0.00,VWS V14.00,2013-05-26 17:33:00,
2013-05-26 12:38:00,55.6,54.5,30.18,ESE,117,14.0,14.0,96,0.00,,---,0.00,VWS V14.00,2013-05-26 17:38:00,
2013-05-26 12:44:00,55.7,54.6,30.18,ESE,107,13.0,14.0,96,0.00,,---,0.00,VWS V14.00,2013-05-26 17:44:00,
2013-05-26 12:49:00,55.7,54.6,30.17,ESE,111,17.0,17.0,96,0.00,,---,0.00,VWS V14.00,2013-05-26 17:49:00,
2013-05-26 12:54:00,55.9,54.8,30.17,ESE,116,16.0,18.0,96,0.00,,---,0.00,VWS V14.00,2013-05-26 17:54:00,
2013-05-26 12:59:00,56.3,55.2,30.17,ESE,117,18.0,19.0,96,0.00,,---,0.00,VWS V14.00,2013-05-26 17:59:00,
2013-05-26 13:04:00,56.3,55.2,30.16,ESE,110,17.0,19.0,96,0.00,,---,0.00,VWS V14.00,2013-05-26 18:04:00,
2013-05-26 13:09:00,56.6,55.5,30.16,East,101,17.0,18.0,96,0.00,,---,0.00,VWS V14.00,2013-05-26 18:09:00,
2013-05-26 13:14:00,57.2,56.1,30.16,ESE,117,14.0,21.0,96,0.00,,---,0.00,VWS V14.00,2013-05-26 18:14:00,
2013-05-26 13:19:00,57.5,56.4,30.15,ESE,105,14.0,18.0,96,0.00,,---,0.00,VWS V14.00,2013-05-26 18:19:00,
2013-05-26 13:24:00,58.1,57.0,30.15,ESE,116,13.0,19.0,96,0.00,,---,0.00,VWS V14.00,2013-05-26 18:24:00,
2013-05-26 13:29:00,58.7,57.6,30.15,ESE,109,15.0,16.0,96,0.00,,---,0.00,VWS V14.00,2013-05-26 18:29:00,
2013-05-26 13:34:00,59.2,58.1,30.15,ESE,112,15.0,17.0,96,0.00,,---,0.00,VWS V14.00,2013-05-26 18:34:00,
2013-05-26 13:40:00,59.8,58.4,30.15,ESE,115,17.0,19.0,95,0.00,,---,0.00,VWS V14.00,2013-05-26 18:40:00,
2013-05-26 13:45:00,59.8,58.1,30.15,SE,124,18.0,20.0,94,0.00,,---,0.00,VWS V14.00,2013-05-26 18:45:00,
2013-05-26 13:50:00,59.9,57.6,30.14,ESE,110,18.0,18.0,92,0.00,,---,0.00,VWS V14.00,2013-05-26 18:50:00,
2013-05-26 13:55:00,60.1,58.1,30.14,SE,138,13.0,18.0,93,0.00,,---,0.00,VWS V14.00,2013-05-26 18:55:00,
2013-05-26 14:00:00,60.4,58.4,30.14,SE,128,16.0,18.0,93,0.00,,---,0.00,VWS V14.00,2013-05-26 19:00:00,
2013-05-26 14:05:00,60.7,58.7,30.14,SE,128,16.0,16.0,93,0.00,,---,0.00,VWS V14.00,2013-05-26 19:05:00,
2013-05-26 14:10:00,60.5,58.2,30.14,SE,129,20.0,20.0,92,0.00,,---,0.00,VWS V14.00,2013-05-26 19:10:00,
2013-05-26 14:15:00,60.9,58.6,30.14,SE,138,17.0,19.0,92,0.00,,---,0.00,VWS V14.00,2013-05-26 19:15:00,
2013-05-26 14:20:00,60.7,58.1,30.14,ESE,120,14.0,18.0,91,0.00,,---,0.00,VWS V14.00,2013-05-26 19:20:00,
2013-05-26 14:26:00,60.4,57.5,30.14,SE,135,13.0,16.0,90,0.00,,---,0.00,VWS V14.00,2013-05-26 19:26:00,
2013-05-26 14:31:00,60.2,57.3,30.14,ESE,122,16.0,16.0,90,0.00,,---,0.00,VWS V14.00,2013-05-26 19:31:00,
2013-05-26 14:36:00,60.7,58.1,30.14,ESE,114,15.0,18.0,91,0.00,,---,0.00,VWS V14.00,2013-05-26 19:36:00,
2013-05-26 14:41:00,61.3,59.0,30.14,ESE,119,16.0,16.0,92,0.00,,---,0.00,VWS V14.00,2013-05-26 19:41:00,
2013-05-26 14:46:00,61.3,58.7,30.13,ESE,121,14.0,16.0,91,0.00,,---,0.00,VWS V14.00,2013-05-26 19:46:00,
2013-05-26 14:51:00,61.8,59.2,30.13,ESE,119,16.0,18.0,91,0.00,,---,0.00,VWS V14.00,2013-05-26 19:51:00,
2013-05-26 14:56:00,61.6,58.6,30.13,SE,125,16.0,18.0,90,0.00,,---,0.00,VWS V14.00,2013-05-26 19:56:00,
2013-05-26 15:01:00,61.6,58.6,30.13,ESE,107,15.0,16.0,90,0.00,,---,0.00,VWS V14.00,2013-05-26 20:01:00,
2013-05-26 15:06:00,61.6,58.3,30.13,ESE,121,12.0,18.0,89,0.00,,---,0.00,VWS V14.00,2013-05-26 20:06:00,
2013-05-26 15:12:00,61.6,58.3,30.13,ESE,107,13.0,15.0,89,0.00,,---,0.00,VWS V14.00,2013-05-26 20:12:00,
2013-05-26 15:17:00,61.6,58.3,30.13,ESE,122,16.0,16.0,89,0.00,,---,0.00,VWS V14.00,2013-05-26 20:17:00,
2013-05-26 15:22:00,61.6,58.3,30.13,SE,134,12.0,17.0,89,0.00,,---,0.00,VWS V14.00,2013-05-26 20:22:00,
2013-05-26 15:27:00,61.5,57.9,30.13,ESE,120,14.0,17.0,88,0.00,,---,0.00,VWS V14.00,2013-05-26 20:27:00,
2013-05-26 15:32:00,61.3,57.7,30.13,ESE,113,10.0,16.0,88,0.00,,---,0.00,VWS V14.00,2013-05-26 20:32:00,
2013-05-26 15:37:00,61.3,57.7,30.13,ESE,110,10.0,13.0,88,0.00,,---,0.00,VWS V14.00,2013-05-26 20:37:00,
2013-05-26 15:42:00,61.3,58.0,30.13,ESE,114,12.0,14.0,89,0.00,,---,0.00,VWS V14.00,2013-05-26 20:42:00,
2013-05-26 15:47:00,61.2,58.2,30.12,ESE,116,12.0,14.0,90,0.00,,---,0.00,VWS V14.00,2013-05-26 20:47:00,
2013-05-26 15:52:00,61.6,59.0,30.12,ESE,118,12.0,13.0,91,0.00,,---,0.00,VWS V14.00,2013-05-26 20:52:00,
2013-05-26 15:57:00,61.6,59.0,30.12,ESE,122,12.0,16.0,91,0.00,,---,0.00,VWS V14.00,2013-05-26 20:57:00,
2013-05-26 16:03:00,62.0,59.7,30.12,ESE,108,13.0,13.0,92,0.00,,---,0.00,VWS V14.00,2013-05-26 21:03:00,
2013-05-26 16:08:00,62.0,59.3,30.12,ESE,109,12.0,14.0,91,0.00,,---,0.00,VWS V14.00,2013-05-26 21:08:00,
2013-05-26 16:13:00,62.1,59.5,30.12,ESE,111,13.0,15.0,91,0.00,,---,0.00,VWS V14.00,2013-05-26 21:13:00,
2013-05-26 16:18:00,62.0,59.0,30.11,ESE,105,12.0,16.0,90,0.00,,---,0.00,VWS V14.00,2013-05-26 21:18:00,
2013-05-26 16:23:00,62.4,59.4,30.11,ESE,107,12.0,16.0,90,0.00,,---,0.00,VWS V14.00,2013-05-26 21:23:00,
2013-05-26 16:28:00,62.6,59.9,30.11,ESE,113,12.0,16.0,91,0.00,,---,0.00,VWS V14.00,2013-05-26 21:28:00,
2013-05-26 16:33:00,62.4,59.1,30.09,ESE,107,11.0,14.0,89,0.00,,---,0.00,VWS V14.00,2013-05-26 21:33:00,
2013-05-26 16:38:00,62.4,59.1,30.09,ESE,105,6.0,14.0,89,0.00,,---,0.00,VWS V14.00,2013-05-26 21:38:00,
2013-05-26 16:44:00,62.4,59.1,30.09,ESE,110,15.0,16.0,89,0.00,,---,0.00,VWS V14.00,2013-05-26 21:44:00,
2013-05-26 16:49:00,62.4,59.1,30.09,ESE,107,11.0,14.0,89,0.00,,---,0.00,VWS V14.00,2013-05-26 21:49:00,
2013-05-26 16:54:00,62.6,59.3,30.09,ESE,112,14.0,16.0,89,0.00,,---,0.00,VWS V14.00,2013-05-26 21:54:00,
2013-05-26 16:59:00,62.6,59.3,30.09,ESE,113,13.0,15.0,89,0.00,,---,0.00,VWS V14.00,2013-05-26 21:59:00,
2013-05-26 17:04:00,62.6,59.0,30.09,ESE,104,12.0,12.0,88,0.00,,---,0.00,VWS V14.00,2013-05-26 22:04:00,
2013-05-26 17:09:00,62.6,59.0,30.09,ESE,109,11.0,13.0,88,0.00,,---,0.00,VWS V14.00,2013-05-26 22:09:00,
2013-05-26 17:14:00,63.1,59.8,30.09,ESE,106,15.0,16.0,89,0.00,,---,0.00,VWS V14.00,2013-05-26 22:14:00,
2013-05-26 17:19:00,62.9,59.3,30.08,ESE,109,14.0,19.0,88,0.00,,---,0.00,VWS V14.00,2013-05-26 22:19:00,
2013-05-26 17:24:00,63.1,59.8,30.08,ESE,115,16.0,18.0,89,0.00,,---,0.00,VWS V14.00,2013-05-26 22:24:00,
2013-05-26 17:29:00,63.1,59.5,30.08,ESE,106,14.0,17.0,88,0.00,,---,0.00,VWS V14.00,2013-05-26 22:29:00,
2013-05-26 17:34:00,62.7,59.1,30.08,ESE,108,11.0,15.0,88,0.00,,---,0.00,VWS V14.00,2013-05-26 22:34:00,
2013-05-26 17:39:00,62.4,58.8,30.08,ESE,107,15.0,19.0,88,0.00,,---,0.00,VWS V14.00,2013-05-26 22:39:00,
2013-05-26 17:45:00,62.3,58.7,30.08,East,100,14.0,17.0,88,0.00,,---,0.00,VWS V14.00,2013-05-26 22:45:00,
2013-05-26 17:50:00,62.3,59.0,30.07,ESE,105,13.0,18.0,89,0.00,,---,0.00,VWS V14.00,2013-05-26 22:50:00,
2013-05-26 17:55:00,62.3,59.0,30.07,ESE,107,12.0,14.0,89,0.00,,---,0.00,VWS V14.00,2013-05-26 22:55:00,
2013-05-26 18:00:00,62.1,58.8,30.07,ESE,111,15.0,15.0,89,0.00,,---,0.00,VWS V14.00,2013-05-26 23:00:00,
2013-05-26 18:05:00,62.1,58.8,30.06,ESE,114,15.0,15.0,89,0.00,,---,0.00,VWS V14.00,2013-05-26 23:05:00,
2013-05-26 18:10:00,62.0,58.4,30.06,ESE,104,15.0,18.0,88,0.00,,---,0.00,VWS V14.00,2013-05-26 23:10:00,
2013-05-26 18:15:00,62.1,58.8,30.06,ESE,109,8.0,14.0,89,0.00,,---,0.00,VWS V14.00,2013-05-26 23:15:00,
2013-05-26 18:20:00,61.8,58.5,30.06,ESE,106,13.0,17.0,89,0.00,,---,0.00,VWS V14.00,2013-05-26 23:20:00,
2013-05-26 18:26:00,61.8,58.5,30.06,ESE,115,13.0,17.0,89,0.00,,---,0.00,VWS V14.00,2013-05-26 23:26:00,
2013-05-26 18:31:00,61.6,58.3,30.06,ESE,109,14.0,18.0,89,0.00,,---,0.00,VWS V14.00,2013-05-26 23:31:00,
2013-05-26 18:36:00,61.6,58.3,30.06,ESE,112,15.0,17.0,89,0.00,,---,0.00,VWS V14.00,2013-05-26 23:36:00,
2013-05-26 18:41:00,61.5,58.2,30.06,ESE,113,13.0,16.0,89,0.00,,---,0.00,VWS V14.00,2013-05-26 23:41:00,
2013-05-26 18:46:00,61.3,58.3,30.05,ESE,112,14.0,16.0,90,0.00,,---,0.00,VWS V14.00,2013-05-26 23:46:00,
2013-05-26 18:51:00,61.3,58.3,30.05,ESE,113,15.0,15.0,90,0.00,,---,0.00,VWS V14.00,2013-05-26 23:51:00,
2013-05-26 18:56:00,61.3,58.3,30.05,ESE,105,16.0,16.0,90,0.00,,---,0.00,VWS V14.00,2013-05-26 23:56:00,
2013-05-26 19:01:00,61.3,58.3,30.04,ESE,110,14.0,14.0,90,0.00,,---,0.00,VWS V14.00,2013-05-27 00:01:00,
2013-05-26 19:06:00,61.3,58.7,30.04,ESE,110,13.0,13.0,91,0.00,,---,0.00,VWS V14.00,2013-05-27 00:06:00,
2013-05-26 19:11:00,61.3,58.7,30.04,ESE,110,10.0,12.0,91,0.00,,---,0.00,VWS V14.00,2013-05-27 00:11:00,
2013-05-26 19:16:00,61.3,58.7,30.04,ESE,106,11.0,12.0,91,0.00,,---,0.00,VWS V14.00,2013-05-27 00:16:00,
2013-05-26 19:21:00,61.3,58.7,30.04,ESE,105,9.0,9.0,91,0.00,,---,0.00,VWS V14.00,2013-05-27 00:21:00,
2013-05-26 19:26:00,61.3,58.7,30.04,ESE,105,2.0,3.0,91,0.00,,---,0.00,VWS V14.00,2013-05-27 00:26:00,
2013-05-26 19:31:00,61.3,58.7,30.06,ESE,105,0.0,1.0,91,0.00,,---,0.00,VWS V14.00,2013-05-27 00:31:00,
2013-05-26 19:37:00,61.2,58.6,30.06,ESE,105,1.0,2.0,91,0.00,,---,0.00,VWS V14.00,2013-05-27 00:37:00,
2013-05-26 19:42:00,61.2,58.6,30.06,ESE,105,4.0,4.0,91,0.00,,---,0.00,VWS V14.00,2013-05-27 00:42:00,
2013-05-26 19:47:00,61.2,58.6,30.06,ESE,105,5.0,5.0,91,0.00,,---,0.00,VWS V14.00,2013-05-27 00:47:00,
2013-05-26 21:52:00,59.5,55.6,30.03,ESE,112,8.0,17.0,87,0.00,,---,0.00,VWS V14.00,2013-05-27 02:52:00,
2013-05-26 21:57:00,59.5,55.3,30.03,ESE,103,6.0,19.0,86,0.00,,---,0.00,VWS V14.00,2013-05-27 02:57:00,
2013-05-26 22:02:00,59.5,55.3,30.02,ESE,104,10.0,16.0,86,0.00,,---,0.00,VWS V14.00,2013-05-27 03:02:00,
2013-05-26 22:07:00,59.3,55.1,30.02,ESE,105,9.0,17.0,86,0.00,,---,0.00,VWS V14.00,2013-05-27 03:07:00,
2013-05-26 22:12:00,59.3,54.8,30.02,ESE,104,23.0,23.0,85,0.00,,---,0.00,VWS V14.00,2013-05-27 03:12:00,
2013-05-26 22:17:00,59.3,54.8,30.01,ESE,109,9.0,20.0,85,0.00,,---,0.00,VWS V14.00,2013-05-27 03:17:00,
2013-05-26 22:22:00,59.3,54.8,30.01,East,99,12.0,20.0,85,0.00,,---,0.00,VWS V14.00,2013-05-27 03:22:00,
2013-05-26 22:27:00,59.2,54.7,30.01,ESE,102,12.0,12.0,85,0.00,,---,0.00,VWS V14.00,2013-05-27 03:27:00,
2013-05-26 22:32:00,59.2,54.7,30.00,ESE,109,12.0,19.0,85,0.00,,---,0.00,VWS V14.00,2013-05-27 03:32:00,
2013-05-26 22:38:00,59.3,54.8,30.00,ESE,108,19.0,22.0,85,0.00,,---,0.00,VWS V14.00,2013-05-27 03:38:00,
2013-05-26 22:43:00,59.3,54.8,30.00,ESE,105,14.0,21.0,85,0.00,,---,0.00,VWS V14.00,2013-05-27 03:43:00,
2013-05-26 22:48:00,59.2,54.7,30.00,ESE,107,20.0,20.0,85,0.00,,---,0.00,VWS V14.00,2013-05-27 03:48:00,
2013-05-26 22:53:00,59.2,54.7,30.00,ESE,105,13.0,18.0,85,0.00,,---,0.00,VWS V14.00,2013-05-27 03:53:00,
2013-05-26 22:58:00,59.2,55.0,30.00,ESE,107,14.0,22.0,86,0.00,,---,0.00,VWS V14.00,2013-05-27 03:58:00,
2013-05-26 23:01:00,59.3,55.1,29.99,ESE,110,16.0,16.0,86,0.00,,---,0.00,VWS V14.00,2013-05-27 04:01:00,
2013-05-26 23:04:00,59.3,55.1,29.99,ESE,115,18.0,20.0,86,0.00,,---,0.00,VWS V14.00,2013-05-27 04:04:00,
2013-05-26 23:09:00,59.3,55.1,29.99,ESE,115,17.0,20.0,86,0.00,,---,0.00,VWS V14.00,2013-05-27 04:09:00,
2013-05-26 23:14:00,59.3,55.4,29.99,ESE,104,15.0,18.0,87,0.00,,---,0.00,VWS V14.00,2013-05-27 04:14:00,
2013-05-26 23:19:00,59.2,56.0,29.98,ESE,119,21.0,21.0,89,0.00,,---,0.00,VWS V14.00,2013-05-27 04:19:00,
2013-05-26 23:25:00,59.0,55.8,29.98,ESE,109,16.0,19.0,89,0.00,,---,0.00,VWS V14.00,2013-05-27 04:25:00,
2013-05-26 23:30:00,59.0,55.8,29.98,ESE,110,20.0,20.0,89,0.00,,---,0.00,VWS V14.00,2013-05-27 04:30:00,
2013-05-26 23:35:00,59.0,55.8,29.98,ESE,109,17.0,19.0,89,0.00,,---,0.00,VWS V14.00,2013-05-27 04:35:00,
2013-05-26 23:40:00,59.0,55.8,29.98,ESE,103,12.0,15.0,89,0.00,,---,0.00,VWS V14.00,2013-05-27 04:40:00,
2013-05-26 23:45:00,59.0,55.8,29.98,ESE,103,0.0,1.0,89,0.00,,---,0.00,VWS V14.00,2013-05-27 04:45:00,
2013-05-26 23:50:00,59.0,55.8,30.00,East,97,6.0,7.0,89,0.00,,---,0.00,VWS V14.00,2013-05-27 04:50:00,
2013-05-26 23:55:00,58.7,55.8,30.00,NE,44,4.0,7.0,90,0.00,,---,0.00,VWS V14.00,2013-05-27 04:55:00,